11 de agosto de 2022

Hora Código Tiempo Temp. Visibilidad Cielo nuboso Viento METAR/SPECI
12:00 a. m.
V
61 °F 9 mi - 360° 360° 4 kt METAR CYOO 110400Z AUTO 36004KT 9SM CLR 16/14 A2999 RMK SLP156 DENSITY ALT 700FT

10 de agosto de 2022

Hora Código Tiempo Temp. Visibilidad Cielo nuboso Viento METAR/SPECI
11:00 p. m.
V
64 °F 9 mi - 090° 090° 4 kt METAR CYOO 110300Z AUTO 09004KT 9SM CLR 18/15 A2999 RMK SLP157 DENSITY ALT 800FT
8:00 a. m.
V
64 °F 9 mi - Var 000° 0 kt METAR CYOO 101200Z AUTO 00000KT 9SM CLR 18/15 A3012 RMK SLP201 DENSITY ALT 700FT
7:00 a. m.
V
59 °F 9 mi - 360° 360° 2 kt METAR CYOO 101100Z AUTO 36002KT 9SM CLR 15/14 A3011 RMK SLP197
6:00 a. m.
V
59 °F 9 mi - 010° 010° 2 kt METAR CYOO 101000Z AUTO 01002KT 9SM CLR 15/14 A3010 RMK SLP194
5:00 a. m.
V
61 °F 9 mi 4.700 ft Var 000° 0 kt METAR CYOO 100900Z AUTO 00000KT 9SM OVC047 16/15 A3010 RMK SLP195 DENSITY ALT 500FT
4:00 a. m.
V
61 °F 9 mi 4.700 ft 360° 360° 2 kt METAR CYOO 100800Z AUTO 36002KT 9SM OVC047 16/15 A3010 RMK SLP196 DENSITY ALT 500FT
3:00 a. m.
V
59 °F 9 mi 4.700 ft 010° 010° 5 kt METAR CYOO 100700Z AUTO 01005KT 9SM OVC047 15/14 A3010 RMK SLP194
2:00 a. m.
V
59 °F 9 mi - 010° 010° 2 kt METAR CYOO 100600Z AUTO 01002KT 9SM CLR 15/14 A3009 RMK SLP193
1:00 a. m.
V
59 °F 9 mi - Var Var 2 kt METAR CYOO 100500Z AUTO VRB02KT 9SM CLR 15/14 A3009 RMK SLP192
12:00 a. m.
V
63 °F 9 mi - 180° 180° 2 kt METAR CYOO 100400Z AUTO 18002KT 9SM FEW042 17/15 A3008 RMK SLP187 DENSITY ALT 700FT

9 de agosto de 2022

Hora Código Tiempo Temp. Visibilidad Cielo nuboso Viento METAR/SPECI
11:00 p. m.
V
64 °F 9 mi 4.200 ft 090° 090° 4 kt METAR CYOO 100300Z AUTO 09004KT 9SM OVC042 18/15 A3007 RMK SLP186 DENSITY ALT 800FT
10:00 p. m.
V
66 °F 9 mi 4.400 ft 040° 040° 4 kt METAR CYOO 100200Z AUTO 04004KT 9SM OVC044 19/15 A3006 RMK SLP182 DENSITY ALT 900FT
9:00 p. m.
V
66 °F 9 mi 4.600 ft 020° 020° 5 kt METAR CYOO 100100Z AUTO 02005KT 9SM OVC046 19/15 A3006 RMK SLP182 DENSITY ALT 1000FT
8:00 p. m.
V
68 °F 9 mi 4.600 ft 320° 320° 5 kt METAR CYOO 100000Z AUTO 32005KT 9SM OVC046 20/15 A3005 RMK SLP176 DENSITY ALT 1000FT
7:00 p. m.
V
68 °F 9 mi 4.200 ft 330° 330° 7 kt METAR CYOO 092300Z AUTO 33007KT 9SM OVC042 20/15 A3004 RMK SLP173 DENSITY ALT 1100FT
6:00 p. m.
V
70 °F 9 mi 4.200 ft 320° 320° 6 kt METAR CYOO 092200Z AUTO 32006KT 9SM FEW035 OVC042 21/14 A3003 RMK SLP171 DENSITY ALT 1200FT
5:00 p. m.
V
70 °F 9 mi 4.200 ft 360° 360° 8 kt METAR CYOO 092100Z AUTO 36008KT 9SM OVC042 21/14 A3003 RMK SLP170 DENSITY ALT 1200FT
4:00 p. m.
V
70 °F 9 mi 3.600 ft 340° 340° 8 kt METAR CYOO 092000Z AUTO 34008KT 9SM OVC036 21/14 A3003 RMK SLP171 DENSITY ALT 1200FT
3:00 p. m.
V
70 °F 9 mi 3.700 ft 320° 320° 9 kt METAR CYOO 091900Z AUTO 32009KT 9SM OVC037 21/15 A3003 RMK SLP170 DENSITY ALT 1200FT
2:00 p. m.
V
70 °F 9 mi 3.500 ft 340° 340° 10 - 17 kt METAR CYOO 091800Z AUTO 34010G17KT 9SM OVC035 21/14 A3003 RMK SLP170 DENSITY ALT 1200FT
1:00 p. m.
V
72 °F 9 mi 3.500 ft 320° 320° 11 kt METAR CYOO 091700Z AUTO 32011KT 9SM SCT027 OVC035 22/15 A3003 RMK SLP169 DENSITY ALT 1300FT
12:00 p. m.
V
68 °F 9 mi 3.600 ft 300° 300° 5 kt METAR CYOO 091600Z AUTO 30005KT 280V350 9SM FEW021 SCT029 OVC036 20/15 A3002 RMK SLP167 DENSITY ALT 1100FT
11:00 a. m.
V
68 °F 9 mi 3.200 ft 300° 300° 12 kt METAR CYOO 091500Z AUTO 30012KT 9SM SCT019 BKN032 OVC041 20/16 A3002 RMK SLP165 DENSITY ALT 1100FT
10:42 a. m.
V
66 °F 9 mi 3.800 ft 360° 360° 9 - 19 kt METAR CYOO 091442Z AUTO 36009G19KT 9SM FEW019 SCT026 SCT030 OVC038 19/15 A3001 RMK SLP164 DENSITY ALT 1000FT
10:32 a. m.
M
66 °F 9 mi 2.600 ft 350° 350° 10 - 15 kt METAR CYOO 091432Z AUTO 35010G15KT 9SM -RA SCT019 BKN026 BKN034 OVC041 19/16 A3001 RMK SLP163 DENSITY ALT 1000FT
10:00 a. m.
M
66 °F 9 mi 2.600 ft 010° 010° 6 kt METAR CYOO 091400Z AUTO 01006KT 330V030 9SM BKN026 OVC032 19/16 A3000 RMK SLP161 DENSITY ALT 1000FT
9:10 a. m.
M
66 °F 9 mi 2.900 ft 330° 330° 9 kt METAR CYOO 091310Z AUTO 33009KT 9SM SCT019 OVC029 19/15 A2999 RMK SLP157 DENSITY ALT 900FT
9:00 a. m.
M
64 °F 9 mi 1.900 ft 330° 330° 10 kt METAR CYOO 091300Z AUTO 33010KT 9SM BKN019 BKN026 OVC034 18/15 A2999 RMK SLP155 DENSITY ALT 900FT
8:00 a. m.
V
64 °F 9 mi - 320° 320° 9 kt METAR CYOO 091200Z AUTO 32009KT 9SM SCT020 SCT027 18/15 A2997 RMK SLP148 DENSITY ALT 900FT
7:47 a. m.
M
64 °F 9 mi 2.900 ft 300° 300° 7 kt METAR CYOO 091147Z AUTO 30007KT 9SM SCT022 BKN029 BKN033 18/15 A2996 RMK SLP148 DENSITY ALT 900FT
7:33 a. m.
M
64 °F 9 mi 2.200 ft 300° 300° 8 kt METAR CYOO 091133Z AUTO 30008KT 9SM BKN022 18/15 A2996 RMK SLP146 DENSITY ALT 900FT
7:11 a. m.
V
63 °F 9 mi - 320° 320° 8 kt METAR CYOO 091111Z AUTO 32008KT 9SM FEW015 SCT021 17/15 A2994 RMK SLP140 DENSITY ALT 900FT
7:00 a. m.
M
64 °F 9 mi 2.100 ft 310° 310° 7 kt METAR CYOO 091100Z AUTO 31007KT 9SM BKN021 18/15 A2994 RMK SLP138 DENSITY ALT 900FT
6:55 a. m.
M
64 °F 9 mi 2.100 ft 320° 320° 8 kt METAR CYOO 091055Z AUTO 32008KT 9SM BKN021 18/15 A2993 RMK SLP138 DENSITY ALT 900FT
6:15 a. m.
V
64 °F 9 mi - 330° 330° 10 - 15 kt METAR CYOO 091015Z AUTO 33010G15KT 9SM SCT020 18/15 A2991 RMK SLP132 DENSITY ALT 900FT
6:00 a. m.
M
64 °F 9 mi 1.800 ft 320° 320° 10 - 15 kt METAR CYOO 091000Z AUTO 32010G15KT 9SM OVC018 18/15 A2991 RMK SLP128 DENSITY ALT 1000FT
5:35 a. m.
M
64 °F 9 mi 2.300 ft 330° 330° 8 kt METAR CYOO 090935Z AUTO 33008KT 9SM OVC023 18/15 A2990 RMK SLP126 DENSITY ALT 1000FT
5:00 a. m.
V
64 °F 9 mi - 300° 300° 9 kt METAR CYOO 090900Z AUTO 30009KT 9SM SCT025 18/15 A2989 RMK SLP122 DENSITY ALT 1000FT
4:20 a. m.
V
64 °F 9 mi - 330° 330° 9 kt METAR CYOO 090820Z AUTO 33009KT 9SM SCT018 18/15 A2988 RMK SLP120 DENSITY ALT 1000FT
4:00 a. m.
M
66 °F 9 mi 1.800 ft 310° 310° 8 kt METAR CYOO 090800Z AUTO 31008KT 9SM OVC018 19/16 A2987 RMK SLP115 DENSITY ALT 1100FT
3:00 a. m.
M
66 °F 9 mi 1.600 ft 320° 320° 11 - 16 kt METAR CYOO 090700Z AUTO 32011G16KT 9SM OVC016 19/16 A2986 RMK SLP111 DENSITY ALT 1100FT
2:00 a. m.
M
68 °F 9 mi 1.600 ft 310° 310° 12 - 22 kt METAR CYOO 090600Z AUTO 31012G22KT 9SM OVC016 20/17 A2984 RMK SLP105 DENSITY ALT 1200FT
1:19 a. m.
M
68 °F 9 mi 1.600 ft 300° 300° 15 - 21 kt METAR CYOO 090519Z AUTO 30015G21KT 9SM BKN016 20/17 A2984 RMK SLP105 DENSITY ALT 1300FT
1:00 a. m.
V
68 °F 9 mi - 310° 310° 18 kt METAR CYOO 090500Z AUTO 31018KT 9SM FEW015 20/17 A2983 RMK SLP100 DENSITY ALT 1300FT
12:37 a. m.
V
68 °F 9 mi - 310° 310° 19 - 24 kt METAR CYOO 090437Z AUTO 31019G24KT 9SM SCT015 20/17 A2983 RMK SLP101 DENSITY ALT 1300FT
12:00 a. m.
V
70 °F 9 mi - 290° 290° 9 kt METAR CYOO 090400Z AUTO 29009KT 9SM SCT034 21/19 A2982 RMK SLP098 DENSITY ALT 1500FT

8 de agosto de 2022

Hora Código Tiempo Temp. Visibilidad Cielo nuboso Viento METAR/SPECI
11:00 p. m.
V
75 °F 9 mi 4.100 ft 300° 300° 11 - 21 kt METAR CYOO 090300Z AUTO 30011G21KT 9SM FEW019 SCT027 SCT034 BKN041 24/21 A2978 RMK SLP083 DENSITY ALT 1800FT
10:00 p. m.
V
79 °F 9 mi 4.300 ft 250° 250° 10 - 17 kt METAR CYOO 090200Z AUTO 25010G17KT 9SM FEW032 BKN043 BKN120 26/22 A2977 RMK SLP079 DENSITY ALT 2000FT
9:00 p. m.
V
77 °F 9 mi 13.000 ft 230° 230° 6 kt METAR CYOO 090100Z AUTO 23006KT 9SM SCT027 BKN130 BKN150 25/23 A2975 RMK SLP073 DENSITY ALT 2000FT
8:00 p. m.
V
79 °F 9 mi - 220° 220° 6 kt METAR CYOO 090000Z AUTO 22006KT 9SM SCT130 26/23 A2974 RMK SLP069 DENSITY ALT 2100FT
Datos más antiguos

Nosotros y terceros seguimos tu comportamiento en Internet en nuestro sitio web con cookies. Si continúas, asumimos que estás de acuerdo con nuestra política de cookies. Más información